Portada
METAR-TAF:

METAR-TAF

Aeroports :

Moscou, Rússia

latitud: 55-30-42N, longitud: 037-30-26E, altitud: 173 m

Observació

L'informe es va fer fa 14 minuts, a les 01:00 UTC
Vent 6 kt del Nord-Oest
Temperatura 15°C
Humitat 100%
Pressió 1010 hPa
Visibilitat 10 km o més
sense núvols per sota de 1500 mi sense presència de cumulonimbus.

METAR: UUMO 160100Z 32003MPS CAVOK 15/15 Q1010 R25/090060 NOSIG RMK QFE742/0990

Hora: 04:14 (01:14 UTC)

Pronòstic

L'informe es va fer fa 2 hores i 15 minuts, a les 22:59 UTC
Pronòstic vàlid del 16 a les 00 UTC al 16 a les 09 UTC
Vent 2 kt amb direcció variable
Visibilitat 10 km o més
Núvols disperses a una alçada de 3000 ft
Evolucionant progressivament
l' 16 a les 04 UTC al 16 a les 06 UTC
Vent 6 kt del Nord-Oest amb ràfegues de 16 kt

TAF: UUMO 152259Z 1600/1609 VRB01MPS 9999 SCT030 BECMG 1604/1606 31003G08MPS

Observacions i pronòstics meteorològics de més de 4000 aeroports (METAR i TAF).

Les estacions disponibles són els punts grocs i vermells al mapa.

Posi el ratolí al punt desitjat per veure el nom de l'estació.

Feu clic per veure les observacions i els pronòstics meteorològics.

Per canviar el mapa: feu clic els botons verds amb una creu de color negre per apropar; al botó verd amb un guió per allunyar la imatge; o en les fletxes verdes per a mapes adjacents.


METAR-TAF: